createdAt,value
2019-02-06T00:02:06.754Z,1.42
2019-02-06T00:04:36.228Z,1.47
2019-02-06T00:07:06.990Z,1.42
2019-02-06T00:09:36.483Z,1.38
2019-02-06T00:12:06.913Z,1.40
2019-02-06T00:14:37.483Z,1.33
2019-02-06T00:17:07.361Z,1.29
2019-02-06T00:19:37.869Z,1.24
2019-02-06T00:22:09.256Z,1.14
2019-02-06T00:24:38.737Z,1.04
2019-02-06T00:27:08.694Z,0.87
2019-02-06T00:29:38.551Z,0.57
2019-02-06T00:32:07.994Z,0.59
2019-02-06T00:34:37.191Z,0.56
2019-02-06T00:37:07.181Z,0.60
2019-02-06T00:39:37.470Z,0.64
2019-02-06T00:42:07.659Z,0.65
2019-02-06T00:44:37.922Z,0.61
2019-02-06T00:47:07.923Z,0.68
2019-02-06T00:49:37.662Z,0.70
2019-02-06T00:52:06.883Z,0.73
2019-02-06T00:54:36.869Z,0.75
2019-02-06T00:57:06.332Z,0.69
2019-02-06T00:59:38.796Z,0.68
2019-02-06T01:02:08.030Z,0.65
2019-02-06T01:04:37.909Z,0.38
2019-02-06T01:07:07.131Z,0.50
2019-02-06T01:09:36.588Z,0.43
2019-02-06T01:12:08.900Z,0.39
2019-02-06T01:14:38.975Z,0.47
2019-02-06T01:17:10.417Z,0.56
2019-02-06T01:19:39.599Z,0.54
2019-02-06T01:22:09.575Z,0.56
2019-02-06T01:24:38.777Z,0.59
2019-02-06T01:27:07.987Z,0.51
2019-02-06T01:29:37.154Z,0.44
2019-02-06T01:32:07.134Z,0.39
2019-02-06T01:34:36.578Z,0.31
2019-02-06T01:37:06.315Z,0.26
2019-02-06T01:39:35.503Z,0.24
2019-02-06T01:42:05.266Z,0.24
2019-02-06T01:44:34.528Z,0.28
2019-02-06T01:47:03.718Z,0.33
2019-02-06T01:49:33.084Z,0.22
2019-02-06T01:52:02.291Z,0.23
2019-02-06T01:54:32.061Z,0.24
2019-02-06T01:57:01.503Z,0.21
2019-02-06T01:59:30.971Z,0.23
2019-02-06T02:02:00.397Z,0.29
2019-02-06T02:04:29.641Z,0.36
2019-02-06T02:07:00.301Z,0.42
2019-02-06T02:09:29.484Z,0.24
2019-02-06T02:11:59.132Z,0.17
2019-02-06T02:14:28.620Z,0.03
2019-02-06T02:16:57.785Z,0.04
2019-02-06T02:19:27.280Z,0.08
2019-02-06T02:21:57.743Z,0.15
2019-02-06T02:24:27.630Z,0.28
2019-02-06T02:26:58.117Z,0.21
2019-02-06T02:29:27.802Z,0.13
2019-02-06T02:31:57.363Z,0.07
2019-02-06T02:34:26.834Z,0.25
2019-02-06T02:36:56.277Z,0.30
2019-02-06T02:39:25.501Z,0.41
2019-02-06T02:41:54.962Z,0.36
2019-02-06T02:44:24.776Z,0.38
2019-02-06T02:46:54.392Z,0.52
2019-02-06T02:49:24.368Z,0.49
2019-02-06T02:51:53.546Z,0.51
2019-02-06T02:54:22.760Z,0.55
2019-02-06T02:56:54.134Z,0.57
2019-02-06T02:59:25.108Z,0.43
2019-02-06T03:02:16.775Z,0.31
2019-02-06T03:04:50.712Z,0.31
2019-02-06T03:07:20.126Z,0.04
2019-02-06T03:09:49.332Z,0.10
2019-02-06T03:12:18.753Z,0.09
2019-02-06T03:14:47.948Z,0.15
2019-02-06T03:17:17.429Z,0.17
2019-02-06T03:19:46.759Z,0.19
2019-02-06T03:22:16.457Z,0.24
2019-02-06T03:24:46.524Z,0.24
2019-02-06T03:27:15.700Z,0.27
2019-02-06T03:29:45.221Z,0.32
2019-02-06T03:32:15.213Z,0.29
2019-02-06T03:34:45.193Z,0.28
2019-02-06T03:37:15.021Z,0.30
2019-02-06T03:39:44.605Z,0.30
2019-02-06T03:42:13.756Z,0.31
2019-02-06T03:44:43.897Z,0.17
2019-02-06T03:47:13.812Z,0.31
2019-02-06T03:49:43.034Z,0.28
2019-02-06T03:52:12.483Z,0.30
2019-02-06T03:54:41.734Z,0.36
2019-02-06T03:57:10.900Z,0.33
2019-02-06T03:59:40.374Z,0.19
2019-02-06T04:02:09.563Z,0.11
2019-02-06T04:04:38.570Z,0.12
2019-02-06T04:07:08.686Z,0.17
2019-02-06T04:09:38.119Z,0.14
2019-02-06T04:12:07.675Z,0.11
2019-02-06T04:14:37.169Z,0.17
2019-02-06T04:17:06.728Z,0.23
2019-02-06T04:19:35.917Z,0.16
2019-02-06T04:22:07.211Z,0.21
2019-02-06T04:24:36.724Z,0.12
2019-02-06T04:27:06.214Z,0.06
2019-02-06T04:29:36.213Z,0.18
2019-02-06T04:32:06.417Z,0.15
2019-02-06T04:34:35.619Z,0.18
2019-02-06T04:37:07.144Z,0.29
2019-02-06T04:39:36.331Z,0.21
2019-02-06T04:42:05.819Z,0.18
2019-02-06T04:44:37.141Z,0.31
2019-02-06T04:47:06.681Z,0.32
2019-02-06T04:49:36.352Z,0.22
2019-02-06T04:52:06.756Z,0.33
2019-02-06T04:54:35.995Z,0.25
2019-02-06T04:57:09.504Z,0.11
2019-02-06T04:59:38.595Z,0.15
2019-02-06T05:02:07.813Z,0.11
2019-02-06T05:04:36.995Z,0.12
2019-02-06T05:07:18.349Z,0.06
2019-02-06T05:09:39.778Z,0.03
2019-02-06T05:12:09.687Z,0.12
2019-02-06T05:14:38.911Z,0.11
2019-02-06T05:17:08.843Z,0.03
2019-02-06T05:19:38.802Z,0.04
2019-02-06T05:22:08.140Z,0.02
2019-02-06T05:24:38.709Z,-0.01
2019-02-06T05:27:11.221Z,-0.03
2019-02-06T05:29:40.771Z,-0.08
2019-02-06T05:32:10.928Z,-0.13
2019-02-06T05:34:40.821Z,-0.03
2019-02-06T05:37:10.036Z,-0.07
2019-02-06T05:39:39.496Z,-0.08
2019-02-06T05:42:08.732Z,0.00
2019-02-06T05:44:38.170Z,-0.11
2019-02-06T05:47:12.640Z,0.01
2019-02-06T05:49:42.930Z,0.01
2019-02-06T05:52:14.345Z,0.05
2019-02-06T05:54:43.823Z,-0.07
2019-02-06T05:57:13.544Z,-0.10
2019-02-06T05:59:42.966Z,0.05
2019-02-06T06:02:12.447Z,-0.06
2019-02-06T06:04:42.224Z,0.03
2019-02-06T06:07:11.426Z,-0.01
2019-02-06T06:09:41.475Z,0.09
2019-02-06T06:12:10.677Z,0.11
2019-02-06T06:14:39.852Z,0.08
2019-02-06T06:17:09.918Z,0.07
2019-02-06T06:19:40.891Z,0.06
2019-02-06T06:22:10.453Z,0.01
2019-02-06T06:24:39.623Z,0.12
2019-02-06T06:27:11.694Z,0.07
2019-02-06T06:29:41.214Z,-0.01
2019-02-06T06:32:10.413Z,-0.08
2019-02-06T06:34:40.992Z,-0.08
2019-02-06T06:37:11.198Z,0.03
2019-02-06T06:39:40.812Z,-0.01
2019-02-06T06:42:10.948Z,0.02
2019-02-06T06:44:40.474Z,0.02
2019-02-06T06:47:09.893Z,0.03
2019-02-06T06:49:41.552Z,0.12
2019-02-06T06:52:10.990Z,0.03
2019-02-06T06:54:40.496Z,0.05
2019-02-06T06:57:12.301Z,-0.08
2019-02-06T06:59:42.009Z,-0.09
2019-02-06T07:02:11.151Z,-0.10
2019-02-06T07:04:40.646Z,-0.07
2019-02-06T07:07:10.113Z,-0.05
2019-02-06T07:09:39.356Z,-0.12
2019-02-06T07:12:09.900Z,-0.04
2019-02-06T07:14:39.105Z,-0.09
2019-02-06T07:17:08.288Z,-0.06
2019-02-06T07:19:38.356Z,-0.12
2019-02-06T07:22:07.880Z,-0.22
2019-02-06T07:24:37.343Z,-0.24
2019-02-06T07:27:07.204Z,-0.31
2019-02-06T07:29:36.401Z,-0.14
2019-02-06T07:32:06.057Z,-0.12
2019-02-06T07:34:35.451Z,-0.13
2019-02-06T07:37:05.089Z,-0.30
2019-02-06T07:39:34.571Z,-0.20
2019-02-06T07:42:03.767Z,-0.06
2019-02-06T07:44:33.762Z,-0.09
2019-02-06T07:47:02.948Z,-0.05
2019-02-06T07:49:32.827Z,-0.08
2019-02-06T07:52:04.248Z,-0.08
2019-02-06T07:54:34.538Z,-0.09
2019-02-06T07:57:05.505Z,-0.08
2019-02-06T07:59:34.677Z,-0.18
2019-02-06T08:02:04.182Z,-0.10
2019-02-06T08:04:34.028Z,-0.05
2019-02-06T08:07:03.489Z,-0.03
2019-02-06T08:09:32.711Z,-0.10
2019-02-06T08:12:02.689Z,-0.05
2019-02-06T08:14:32.650Z,-0.11
2019-02-06T08:17:02.664Z,-0.09
2019-02-06T08:19:32.370Z,-0.15
2019-02-06T08:22:01.836Z,-0.18
2019-02-06T08:24:31.899Z,-0.14
2019-02-06T08:27:01.755Z,-0.01
2019-02-06T08:29:34.191Z,-0.05
2019-02-06T08:32:04.333Z,0.04
2019-02-06T08:34:33.630Z,-0.02
2019-02-06T08:37:02.801Z,-0.01
2019-02-06T08:39:31.993Z,0.12
2019-02-06T08:42:01.176Z,0.19
2019-02-06T08:44:30.399Z,0.17
2019-02-06T08:46:59.863Z,0.19
2019-02-06T08:49:29.534Z,0.33
2019-02-06T08:51:58.849Z,0.43
2019-02-06T08:54:28.022Z,0.42
2019-02-06T08:56:58.948Z,0.37
2019-02-06T08:59:28.209Z,0.39
2019-02-06T09:01:58.079Z,0.38
2019-02-06T09:04:27.469Z,0.37
2019-02-06T09:06:59.255Z,0.56
2019-02-06T09:09:28.867Z,0.64
2019-02-06T09:12:02.157Z,0.74
2019-02-06T09:14:32.241Z,0.81
2019-02-06T09:17:04.682Z,0.83
2019-02-06T09:19:34.116Z,1.05
2019-02-06T09:22:03.681Z,0.92
2019-02-06T09:24:32.926Z,0.89
2019-02-06T09:27:02.159Z,0.97
2019-02-06T09:29:31.417Z,0.95
2019-02-06T09:32:00.647Z,1.07
2019-02-06T09:34:30.253Z,1.00
2019-02-06T09:37:00.468Z,1.04
2019-02-06T09:39:30.742Z,1.24
2019-02-06T09:42:04.776Z,1.14
2019-02-06T09:44:35.910Z,1.22
2019-02-06T09:47:05.763Z,1.00
2019-02-06T09:49:49.829Z,1.08
2019-02-06T09:52:18.847Z,1.18
2019-02-06T09:54:48.023Z,1.27
2019-02-06T09:57:17.471Z,1.18
2019-02-06T09:59:46.746Z,1.22
2019-02-06T10:02:16.123Z,1.36
2019-02-06T10:04:45.400Z,1.22
2019-02-06T10:07:14.796Z,1.29
2019-02-06T10:09:44.592Z,1.25
2019-02-06T10:12:15.635Z,1.22
2019-02-06T10:14:45.324Z,1.28
2019-02-06T10:17:14.549Z,1.19
2019-02-06T10:19:53.525Z,1.35
2019-02-06T10:22:23.109Z,1.41
2019-02-06T10:24:55.090Z,1.48
2019-02-06T10:27:26.812Z,1.47
2019-02-06T10:29:57.531Z,1.66
2019-02-06T10:32:26.740Z,1.67
2019-02-06T10:34:56.976Z,1.41
2019-02-06T10:37:29.278Z,1.61
2019-02-06T10:40:01.918Z,1.50
2019-02-06T10:42:32.489Z,1.65
2019-02-06T10:45:03.497Z,1.95
2019-02-06T10:47:33.122Z,2.16
2019-02-06T10:50:03.508Z,2.10
2019-02-06T10:52:33.675Z,2.01
2019-02-06T10:55:03.096Z,2.22
2019-02-06T10:57:32.291Z,2.38
2019-02-06T11:00:01.463Z,2.39
2019-02-06T11:02:30.770Z,2.53
2019-02-06T11:04:59.970Z,2.64
2019-02-06T11:07:29.520Z,2.63
2019-02-06T11:09:58.719Z,2.74
2019-02-06T11:12:27.908Z,2.90
2019-02-06T11:14:57.198Z,3.17
2019-02-06T11:17:26.360Z,3.21
2019-02-06T11:19:55.570Z,3.13
2019-02-06T11:22:24.868Z,2.74
2019-02-06T11:24:54.100Z,3.24
2019-02-06T11:27:23.285Z,3.39
2019-02-06T11:29:52.681Z,3.37
2019-02-06T11:32:22.346Z,3.34
2019-02-06T11:34:51.954Z,3.44
2019-02-06T11:37:21.560Z,3.53
2019-02-06T11:39:57.491Z,3.64
2019-02-06T11:42:22.925Z,3.83
2019-02-06T11:44:52.143Z,3.74
2019-02-06T11:47:21.976Z,3.92
2019-02-06T11:49:54.631Z,3.93
2019-02-06T11:52:24.289Z,4.20
2019-02-06T11:54:53.480Z,4.15
2019-02-06T11:57:24.283Z,4.30
2019-02-06T11:59:55.772Z,4.25
2019-02-06T12:02:36.679Z,4.31
2019-02-06T12:04:57.704Z,4.22
2019-02-06T12:07:28.345Z,4.48
2019-02-06T12:10:09.041Z,4.49
2019-02-06T12:12:29.581Z,4.62
2019-02-06T12:15:00.843Z,4.54
2019-02-06T12:17:30.020Z,4.67
2019-02-06T12:19:59.539Z,4.71
2019-02-06T12:22:28.718Z,4.78
2019-02-06T12:24:57.918Z,4.79
2019-02-06T12:27:27.102Z,5.03
2019-02-06T12:29:56.310Z,4.81
2019-02-06T12:32:25.871Z,4.77
2019-02-06T12:34:55.637Z,4.97
2019-02-06T12:37:24.823Z,5.10
2019-02-06T12:39:54.387Z,5.21
2019-02-06T12:42:24.305Z,5.14
2019-02-06T12:44:54.302Z,4.74
2019-02-06T12:47:23.496Z,4.84
2019-02-06T12:49:53.269Z,4.72
2019-02-06T12:52:22.642Z,4.77
2019-02-06T12:54:53.677Z,5.09
2019-02-06T12:57:22.859Z,4.84
2019-02-06T12:59:53.151Z,4.79
2019-02-06T13:02:23.460Z,4.68
2019-02-06T13:04:52.642Z,4.65
2019-02-06T13:07:24.111Z,4.60
2019-02-06T13:09:53.885Z,4.35
2019-02-06T13:12:23.346Z,4.49
2019-02-06T13:14:52.874Z,4.38
2019-02-06T13:17:25.767Z,4.58
2019-02-06T13:19:59.963Z,4.89
2019-02-06T13:22:29.926Z,4.92
2019-02-06T13:24:59.356Z,4.99
2019-02-06T13:27:28.563Z,5.23
2019-02-06T13:29:58.295Z,5.19
2019-02-06T13:32:27.739Z,5.05
2019-02-06T13:34:56.917Z,5.16
2019-02-06T13:37:26.509Z,5.51
2019-02-06T13:39:56.477Z,5.63
2019-02-06T13:42:25.947Z,5.58
2019-02-06T13:44:56.170Z,5.67
2019-02-06T13:47:26.896Z,5.68
2019-02-06T13:49:56.178Z,6.13
2019-02-06T13:52:25.677Z,6.05
2019-02-06T13:54:55.922Z,6.11
2019-02-06T13:57:33.503Z,6.81
2019-02-06T13:59:57.235Z,6.84
2019-02-06T14:02:26.434Z,6.99
2019-02-06T14:04:56.157Z,7.25
2019-02-06T14:07:28.439Z,7.69
2019-02-06T14:09:57.975Z,6.96
2019-02-06T14:12:27.624Z,7.07
2019-02-06T14:14:57.090Z,6.78
2019-02-06T14:17:26.559Z,6.86
2019-02-06T14:19:57.210Z,7.30
2019-02-06T14:22:30.006Z,7.57
2019-02-06T14:25:13.271Z,7.94
2019-02-06T14:27:58.226Z,8.15
2019-02-06T14:30:45.716Z,8.29
2019-02-06T14:33:51.444Z,8.15
2019-02-06T14:36:41.844Z,8.91
2019-02-06T14:39:47.802Z,8.16
2019-02-06T14:43:03.818Z,8.07
2019-02-06T14:46:04.990Z,8.84
2019-02-06T14:49:16.478Z,8.74
2019-02-06T14:52:30.892Z,8.94
2019-02-06T14:55:28.944Z,9.17
2019-02-06T14:58:23.170Z,9.31
2019-02-06T15:01:48.414Z,8.81
2019-02-06T15:04:55.768Z,8.38
2019-02-06T15:07:42.997Z,7.82
2019-02-06T15:10:24.106Z,8.10
2019-02-06T15:13:19.026Z,8.06
2019-02-06T15:16:09.167Z,8.06
2019-02-06T15:18:50.438Z,7.86
2019-02-06T15:21:51.745Z,7.79
2019-02-06T15:24:49.957Z,7.73
2019-02-06T15:27:57.854Z,7.76
2019-02-06T15:31:29.105Z,7.89
2019-02-06T15:34:32.380Z,7.68
2019-02-06T15:37:53.160Z,8.19
2019-02-06T15:40:55.667Z,8.21
2019-02-06T15:43:40.336Z,8.20
2019-02-06T15:46:39.309Z,7.99
2019-02-06T15:49:31.778Z,8.15
2019-02-06T15:52:38.557Z,7.93
2019-02-06T15:55:38.668Z,8.04
2019-02-06T15:58:52.200Z,7.79
2019-02-06T16:01:50.323Z,7.26
2019-02-06T16:05:09.023Z,6.88
2019-02-06T16:08:16.563Z,6.91
2019-02-06T16:11:26.721Z,6.29
2019-02-06T16:14:30.129Z,6.04
2019-02-06T16:17:47.177Z,5.83
2019-02-06T16:20:26.409Z,5.53
2019-02-06T16:23:21.264Z,5.16
2019-02-06T16:26:52.679Z,5.15
2019-02-06T16:30:00.290Z,5.21
2019-02-06T16:32:54.671Z,5.04
2019-02-06T16:35:54.843Z,4.82
2019-02-06T16:38:51.985Z,4.57
2019-02-06T16:42:10.797Z,4.35
2019-02-06T16:45:17.923Z,4.30
2019-02-06T16:48:06.159Z,4.43
2019-02-06T16:50:45.547Z,4.34
2019-02-06T16:54:02.677Z,4.34
2019-02-06T16:56:53.447Z,4.28
2019-02-06T17:00:01.893Z,3.97
2019-02-06T17:03:01.664Z,4.02
2019-02-06T17:05:59.326Z,4.13
2019-02-06T17:09:02.063Z,3.96
2019-02-06T17:12:10.136Z,4.00
2019-02-06T17:15:21.031Z,3.96
2019-02-06T17:18:24.520Z,3.95
2019-02-06T17:21:34.846Z,3.92
2019-02-06T17:24:46.923Z,3.93
2019-02-06T17:27:40.535Z,3.87
2019-02-06T17:30:37.988Z,3.90
2019-02-06T17:33:37.177Z,3.86
2019-02-06T17:36:52.911Z,3.91
2019-02-06T17:39:56.355Z,4.00
2019-02-06T17:43:04.484Z,3.96
2019-02-06T17:46:17.601Z,3.84
2019-02-06T17:49:32.599Z,3.62
2019-02-06T17:52:38.951Z,3.47
2019-02-06T17:55:22.274Z,3.39
2019-02-06T17:57:54.340Z,3.40
2019-02-06T18:00:28.539Z,3.41
2019-02-06T18:02:58.522Z,3.37
2019-02-06T18:05:34.065Z,3.27
2019-02-06T18:08:08.032Z,3.27
2019-02-06T18:10:39.071Z,3.11
2019-02-06T18:13:08.708Z,3.25
2019-02-06T18:15:39.352Z,3.05
2019-02-06T18:18:08.946Z,2.94
2019-02-06T18:20:38.228Z,2.82
2019-02-06T18:23:07.554Z,2.85
2019-02-06T18:25:37.117Z,2.88
2019-02-06T18:28:07.856Z,2.70
2019-02-06T18:30:37.689Z,2.58
2019-02-06T18:33:07.952Z,2.65
2019-02-06T18:35:40.895Z,2.58
2019-02-06T18:38:10.503Z,2.45
2019-02-06T18:40:43.007Z,2.45
2019-02-06T18:43:13.134Z,2.35
2019-02-06T18:45:42.601Z,2.42
2019-02-06T18:48:12.697Z,2.38
2019-02-06T18:50:43.582Z,2.35
2019-02-06T18:53:13.034Z,2.29
2019-02-06T18:55:42.261Z,2.32
2019-02-06T18:58:11.852Z,2.21
2019-02-06T19:00:41.440Z,2.24
2019-02-06T19:03:17.578Z,2.24
2019-02-06T19:05:47.175Z,2.26
2019-02-06T19:08:16.947Z,2.13
2019-02-06T19:10:46.351Z,2.09
2019-02-06T19:13:16.764Z,2.05
2019-02-06T19:15:56.231Z,2.10
2019-02-06T19:18:18.857Z,2.03
2019-02-06T19:20:48.065Z,2.01
2019-02-06T19:23:17.522Z,1.97
2019-02-06T19:25:47.095Z,1.91
2019-02-06T19:28:17.316Z,1.93
2019-02-06T19:30:46.818Z,1.96
2019-02-06T19:33:17.282Z,2.04
2019-02-06T19:35:47.182Z,1.98
2019-02-06T19:38:17.058Z,1.91
2019-02-06T19:40:46.273Z,1.92
2019-02-06T19:43:19.381Z,1.84
2019-02-06T19:45:48.570Z,1.83
2019-02-06T19:48:20.234Z,1.94
2019-02-06T19:50:55.537Z,1.97
2019-02-06T19:53:26.119Z,2.01
2019-02-06T19:55:55.854Z,2.05
2019-02-06T19:58:30.564Z,2.13
2019-02-06T20:00:59.779Z,2.11
2019-02-06T20:03:29.226Z,2.05
2019-02-06T20:05:59.907Z,1.98
2019-02-06T20:08:29.076Z,2.01
2019-02-06T20:10:59.087Z,2.04
2019-02-06T20:13:29.204Z,1.98
2019-02-06T20:16:00.205Z,1.93
2019-02-06T20:18:30.517Z,1.80
2019-02-06T20:20:59.695Z,1.60
2019-02-06T20:23:29.944Z,1.61
2019-02-06T20:25:59.380Z,1.61
2019-02-06T20:28:28.589Z,1.55
2019-02-06T20:30:58.477Z,1.49
2019-02-06T20:33:28.501Z,1.53
2019-02-06T20:35:57.690Z,1.45
2019-02-06T20:38:27.447Z,1.34
2019-02-06T20:40:57.001Z,1.26
2019-02-06T20:43:27.747Z,1.21
2019-02-06T20:45:59.007Z,1.19
2019-02-06T20:48:28.747Z,1.06
2019-02-06T20:50:58.965Z,1.09
2019-02-06T20:53:28.308Z,1.08
2019-02-06T20:55:57.867Z,1.08
2019-02-06T20:58:28.548Z,1.07
2019-02-06T21:00:58.151Z,1.08
2019-02-06T21:03:27.719Z,1.11
2019-02-06T21:05:57.003Z,0.98
2019-02-06T21:08:26.543Z,0.95
2019-02-06T21:10:57.845Z,0.98
2019-02-06T21:13:33.121Z,1.11
2019-02-06T21:15:59.030Z,1.14
2019-02-06T21:18:28.374Z,1.04
2019-02-06T21:21:02.560Z,1.17
2019-02-06T21:23:31.902Z,1.02
2019-02-06T21:26:01.568Z,1.05
2019-02-06T21:28:31.492Z,0.97
2019-02-06T21:31:01.916Z,0.88
2019-02-06T21:33:31.813Z,0.95
2019-02-06T21:36:01.290Z,1.03
2019-02-06T21:38:31.293Z,0.91
2019-02-06T21:41:00.460Z,1.00
2019-02-06T21:43:30.422Z,1.04
2019-02-06T21:45:59.977Z,1.03
2019-02-06T21:48:29.332Z,0.94
2019-02-06T21:50:58.703Z,0.92
2019-02-06T21:53:28.686Z,0.82
2019-02-06T21:55:59.199Z,0.85
2019-02-06T21:58:28.434Z,0.86
2019-02-06T22:00:58.767Z,0.85
2019-02-06T22:03:28.577Z,0.88
2019-02-06T22:05:57.835Z,0.90
2019-02-06T22:08:27.104Z,0.80
2019-02-06T22:10:56.326Z,0.85
2019-02-06T22:13:25.495Z,0.80
2019-02-06T22:15:55.027Z,0.80
2019-02-06T22:18:24.873Z,0.76
2019-02-06T22:20:54.162Z,0.61
2019-02-06T22:23:23.864Z,0.68
2019-02-06T22:25:53.228Z,0.70
2019-02-06T22:28:23.019Z,0.77
2019-02-06T22:30:52.528Z,0.78
2019-02-06T22:33:22.466Z,0.78
2019-02-06T22:35:52.659Z,0.71
2019-02-06T22:38:22.905Z,0.74
2019-02-06T22:40:52.127Z,0.71
2019-02-06T22:43:21.295Z,0.68
2019-02-06T22:45:50.818Z,0.67
2019-02-06T22:48:22.426Z,0.74
2019-02-06T22:50:51.715Z,0.67
2019-02-06T22:53:21.068Z,0.56
2019-02-06T22:55:55.833Z,0.76
2019-02-06T22:58:25.796Z,0.61
2019-02-06T23:01:25.540Z,0.55
2019-02-06T23:03:54.736Z,0.64
2019-02-06T23:06:24.831Z,0.60
2019-02-06T23:08:54.284Z,0.64
2019-02-06T23:11:23.485Z,0.62
2019-02-06T23:13:52.937Z,0.52
2019-02-06T23:16:22.412Z,0.55
2019-02-06T23:18:53.353Z,0.63
2019-02-06T23:21:22.722Z,0.46
2019-02-06T23:23:51.887Z,0.47
2019-02-06T23:26:23.715Z,0.40
2019-02-06T23:28:53.143Z,0.40
2019-02-06T23:31:22.360Z,0.39
2019-02-06T23:33:53.017Z,0.33
2019-02-06T23:36:22.385Z,0.38
2019-02-06T23:38:51.574Z,0.35
2019-02-06T23:41:21.457Z,0.37
2019-02-06T23:43:50.886Z,0.45
2019-02-06T23:46:22.445Z,0.45
2019-02-06T23:48:53.572Z,0.46
2019-02-06T23:51:24.728Z,0.34
2019-02-06T23:53:54.201Z,0.34
2019-02-06T23:56:24.745Z,0.30
2019-02-06T23:58:54.929Z,0.31
